createdAt,value
2019-01-24T00:01:27.041Z,45.25
2019-01-24T00:03:57.009Z,50.07
2019-01-24T00:06:27.679Z,47.27
2019-01-24T00:08:57.610Z,53.53
2019-01-24T00:11:27.405Z,55.07
2019-01-24T00:13:57.389Z,53.03
2019-01-24T00:16:27.323Z,54.67
2019-01-24T00:18:57.265Z,53.73
2019-01-24T00:21:26.985Z,46.10
2019-01-24T00:23:57.271Z,52.77
2019-01-24T00:26:27.279Z,57.65
2019-01-24T00:28:57.252Z,48.17
2019-01-24T00:31:27.056Z,54.77
2019-01-24T00:33:56.915Z,50.43
2019-01-24T00:36:26.883Z,49.20
2019-01-24T00:38:56.979Z,42.03
2019-01-24T00:41:26.854Z,52.80
2019-01-24T00:43:56.719Z,49.30
2019-01-24T00:46:26.691Z,52.17
2019-01-24T00:48:56.542Z,44.50
2019-01-24T00:51:26.475Z,53.27
2019-01-24T00:53:56.745Z,50.20
2019-01-24T00:56:26.609Z,53.47
2019-01-24T00:58:56.545Z,52.53
2019-01-24T01:01:26.511Z,55.73
2019-01-24T01:03:56.470Z,63.43
2019-01-24T01:06:26.519Z,41.73
2019-01-24T01:08:56.375Z,50.27
2019-01-24T01:11:26.956Z,57.53
2019-01-24T01:13:56.813Z,54.30
2019-01-24T01:16:26.815Z,49.97
2019-01-24T01:18:56.830Z,56.57
2019-01-24T01:21:26.856Z,53.27
2019-01-24T01:23:56.821Z,58.73
2019-01-24T01:26:26.682Z,53.03
2019-01-24T01:28:56.616Z,52.37
2019-01-24T01:31:26.609Z,47.50
2019-01-24T01:33:56.436Z,47.37
2019-01-24T01:36:26.347Z,54.87
2019-01-24T01:38:56.324Z,54.35
2019-01-24T01:41:26.298Z,48.47
2019-01-24T01:43:57.074Z,51.33
2019-01-24T01:46:26.998Z,47.33
2019-01-24T01:48:57.792Z,58.67
2019-01-24T01:51:27.657Z,58.97
2019-01-24T01:53:57.531Z,55.07
2019-01-24T01:56:27.261Z,59.23
2019-01-24T01:58:57.107Z,53.93
2019-01-24T02:01:27.019Z,55.15
2019-01-24T02:03:56.907Z,51.13
2019-01-24T02:06:27.054Z,55.67
2019-01-24T02:08:58.035Z,50.15
2019-01-24T02:11:27.909Z,53.20
2019-01-24T02:13:57.806Z,54.37
2019-01-24T02:16:28.105Z,53.40
2019-01-24T02:18:58.048Z,52.75
2019-01-24T02:21:29.442Z,47.20
2019-01-24T02:23:59.365Z,53.10
2019-01-24T02:26:29.287Z,54.07
2019-01-24T02:28:59.196Z,55.07
2019-01-24T02:31:29.158Z,49.87
2019-01-24T02:33:59.110Z,50.70
2019-01-24T02:36:29.023Z,57.30
2019-01-24T02:38:58.833Z,49.95
2019-01-24T02:41:28.614Z,48.90
2019-01-24T02:43:58.400Z,53.37
2019-01-24T02:46:28.215Z,54.73
2019-01-24T02:48:59.022Z,59.07
2019-01-24T02:51:28.902Z,53.63
2019-01-24T02:53:58.644Z,52.55
2019-01-24T02:56:28.534Z,56.03
2019-01-24T02:58:59.614Z,64.50
2019-01-24T03:01:29.450Z,53.43
2019-01-24T03:03:59.446Z,50.90
2019-01-24T03:06:29.405Z,49.00
2019-01-24T03:08:59.589Z,55.67
2019-01-24T03:11:29.787Z,55.00
2019-01-24T03:13:59.686Z,50.00
2019-01-24T03:16:29.707Z,57.43
2019-01-24T03:18:59.633Z,57.30
2019-01-24T03:21:29.484Z,65.08
2019-01-24T03:23:59.409Z,58.83
2019-01-24T03:26:29.643Z,52.77
2019-01-24T03:28:59.592Z,55.80
2019-01-24T03:31:29.439Z,54.43
2019-01-24T03:33:59.420Z,59.47
2019-01-24T03:36:29.550Z,56.50
2019-01-24T03:38:59.621Z,54.03
2019-01-24T03:41:29.569Z,52.77
2019-01-24T03:43:59.982Z,58.60
2019-01-24T03:46:29.922Z,51.73
2019-01-24T03:48:59.773Z,57.23
2019-01-24T03:51:29.552Z,52.83
2019-01-24T03:53:59.490Z,50.33
2019-01-24T03:56:29.468Z,56.00
2019-01-24T03:58:59.941Z,53.68
2019-01-24T04:01:29.741Z,51.47
2019-01-24T04:03:59.936Z,57.33
2019-01-24T04:06:29.797Z,54.07
2019-01-24T04:08:59.557Z,53.60
2019-01-24T04:11:29.407Z,58.30
2019-01-24T04:13:59.153Z,57.67
2019-01-24T04:16:29.107Z,58.60
2019-01-24T04:18:59.056Z,59.90
2019-01-24T04:21:29.047Z,63.52
2019-01-24T04:23:58.881Z,54.87
2019-01-24T04:26:28.787Z,54.90
2019-01-24T04:28:58.865Z,59.67
2019-01-24T04:31:28.789Z,64.12
2019-01-24T04:33:58.643Z,51.60
2019-01-24T04:36:28.707Z,59.27
2019-01-24T04:38:58.631Z,56.53
2019-01-24T04:41:29.500Z,57.37
2019-01-24T04:43:59.355Z,61.42
2019-01-24T04:46:29.406Z,56.10
2019-01-24T04:48:59.279Z,63.30
2019-01-24T04:51:29.163Z,60.83
2019-01-24T04:53:59.220Z,60.27
2019-01-24T04:56:29.216Z,57.73
2019-01-24T04:58:59.860Z,59.83
2019-01-24T05:01:29.707Z,58.13
2019-01-24T05:03:59.531Z,58.43
2019-01-24T05:06:30.740Z,59.03
2019-01-24T05:09:00.497Z,53.40
2019-01-24T05:11:30.671Z,58.07
2019-01-24T05:14:00.662Z,56.20
2019-01-24T05:16:30.669Z,53.53
2019-01-24T05:19:00.600Z,59.77
2019-01-24T05:21:30.469Z,56.23
2019-01-24T05:24:00.338Z,66.43
2019-01-24T05:26:30.386Z,58.57
2019-01-24T05:29:00.333Z,61.80
2019-01-24T05:31:30.924Z,64.32
2019-01-24T05:34:00.935Z,66.07
2019-01-24T05:36:32.323Z,64.13
2019-01-24T05:39:02.135Z,59.93
2019-01-24T05:41:33.157Z,60.03
2019-01-24T05:44:03.123Z,65.15
2019-01-24T05:46:33.419Z,62.03
2019-01-24T05:49:03.418Z,56.70
2019-01-24T05:51:33.311Z,52.70
2019-01-24T05:54:03.302Z,59.23
2019-01-24T05:56:33.038Z,65.13
2019-01-24T05:59:03.292Z,65.40
2019-01-24T06:01:33.667Z,65.67
2019-01-24T06:04:05.983Z,65.22
2019-01-24T06:06:36.251Z,63.42
2019-01-24T06:09:07.930Z,59.90
2019-01-24T06:11:38.081Z,58.97
2019-01-24T06:14:09.216Z,60.57
2019-01-24T06:16:39.059Z,62.67
2019-01-24T06:19:08.998Z,61.70
2019-01-24T06:21:38.969Z,66.40
2019-01-24T06:24:08.734Z,59.93
2019-01-24T06:26:38.613Z,60.27
2019-01-24T06:29:08.706Z,66.20
2019-01-24T06:31:38.687Z,66.57
2019-01-24T06:34:08.672Z,69.53
2019-01-24T06:36:38.638Z,64.12
2019-01-24T06:39:09.341Z,73.80
2019-01-24T06:41:39.332Z,63.67
2019-01-24T06:44:09.381Z,61.87
2019-01-24T06:46:39.412Z,63.40
2019-01-24T06:49:09.430Z,65.80
2019-01-24T06:51:39.407Z,64.73
2019-01-24T06:54:10.350Z,56.80
2019-01-24T06:56:40.504Z,62.13
2019-01-24T06:59:10.385Z,65.63
2019-01-24T07:01:40.495Z,64.23
2019-01-24T07:04:12.362Z,59.23
2019-01-24T07:06:42.457Z,62.13
2019-01-24T07:09:12.703Z,59.55
2019-01-24T07:11:42.608Z,69.03
2019-01-24T07:14:12.570Z,59.90
2019-01-24T07:16:42.448Z,65.27
2019-01-24T07:19:12.413Z,63.70
2019-01-24T07:21:42.383Z,69.13
2019-01-24T07:24:12.660Z,64.20
2019-01-24T07:26:42.610Z,65.37
2019-01-24T07:29:12.885Z,69.77
2019-01-24T07:31:42.799Z,62.63
2019-01-24T07:34:13.702Z,63.20
2019-01-24T07:36:43.690Z,70.43
2019-01-24T07:39:13.678Z,60.40
2019-01-24T07:41:43.748Z,62.17
2019-01-24T07:44:14.179Z,66.27
2019-01-24T07:46:44.189Z,69.67
2019-01-24T07:49:14.722Z,71.60
2019-01-24T07:51:44.633Z,60.52
2019-01-24T07:54:14.592Z,61.50
2019-01-24T07:56:45.037Z,68.87
2019-01-24T07:59:14.892Z,70.40
2019-01-24T08:01:45.932Z,70.97
2019-01-24T08:04:15.888Z,68.47
2019-01-24T08:06:45.861Z,72.10
2019-01-24T08:09:15.764Z,69.73
2019-01-24T08:11:45.663Z,56.27
2019-01-24T08:14:15.626Z,64.25
2019-01-24T08:16:45.750Z,68.40
2019-01-24T08:19:15.680Z,61.88
2019-01-24T08:21:45.908Z,67.87
2019-01-24T08:24:15.947Z,66.53
2019-01-24T08:26:45.851Z,59.95
2019-01-24T08:29:17.534Z,62.77
2019-01-24T08:31:47.505Z,62.47
2019-01-24T08:34:18.529Z,67.90
2019-01-24T08:36:48.524Z,66.20
2019-01-24T08:39:18.830Z,63.55
2019-01-24T08:41:48.593Z,64.97
2019-01-24T08:44:18.435Z,71.90
2019-01-24T08:46:49.365Z,66.23
2019-01-24T08:49:19.350Z,64.77
2019-01-24T08:51:49.293Z,57.77
2019-01-24T08:54:19.330Z,68.27
2019-01-24T08:56:49.151Z,69.03
2019-01-24T08:59:19.399Z,71.23
2019-01-24T09:01:49.453Z,67.85
2019-01-24T09:04:19.459Z,71.73
2019-01-24T09:06:49.372Z,73.73
2019-01-24T09:09:19.382Z,80.20
2019-01-24T09:11:53.500Z,73.67
2019-01-24T09:14:23.321Z,79.27
2019-01-24T09:16:53.085Z,77.47
2019-01-24T09:19:24.138Z,65.70
2019-01-24T09:21:54.138Z,65.63
2019-01-24T09:24:24.172Z,70.07
2019-01-24T09:26:54.147Z,67.30
2019-01-24T09:29:24.082Z,67.83
2019-01-24T09:31:53.841Z,71.23
2019-01-24T09:34:24.276Z,66.90
2019-01-24T09:36:54.151Z,70.77
2019-01-24T09:39:24.786Z,76.12
2019-01-24T09:41:54.762Z,74.87
2019-01-24T09:44:24.745Z,73.33
2019-01-24T09:46:54.912Z,68.53
2019-01-24T09:49:24.899Z,70.43
2019-01-24T09:51:54.859Z,64.90
2019-01-24T09:54:24.730Z,72.12
2019-01-24T09:56:54.705Z,73.10
2019-01-24T09:59:24.653Z,70.53
2019-01-24T10:01:54.574Z,74.90
2019-01-24T10:04:24.435Z,66.10
2019-01-24T10:06:54.505Z,67.70
2019-01-24T10:09:24.362Z,69.63
2019-01-24T10:11:54.190Z,80.07
2019-01-24T10:14:24.162Z,68.57
2019-01-24T10:16:54.088Z,73.97
2019-01-24T10:19:24.220Z,68.57
2019-01-24T10:21:55.005Z,77.33
2019-01-24T10:24:24.953Z,68.57
2019-01-24T10:26:55.011Z,67.97
2019-01-24T10:29:24.936Z,69.35
2019-01-24T10:31:54.834Z,72.23
2019-01-24T10:34:25.032Z,73.33
2019-01-24T10:36:54.997Z,68.17
2019-01-24T10:39:25.152Z,73.27
2019-01-24T10:41:55.162Z,64.50
2019-01-24T10:44:25.378Z,70.53
2019-01-24T10:46:55.284Z,69.40
2019-01-24T10:49:25.351Z,67.80
2019-01-24T10:51:55.168Z,76.07
2019-01-24T10:54:25.058Z,69.10
2019-01-24T10:56:55.101Z,70.50
2019-01-24T10:59:25.075Z,71.03
2019-01-24T11:01:55.212Z,76.80
2019-01-24T11:04:25.242Z,67.53
2019-01-24T11:06:55.129Z,67.33
2019-01-24T11:09:25.335Z,71.00
2019-01-24T11:11:55.750Z,68.93
2019-01-24T11:14:25.662Z,69.50
2019-01-24T11:16:56.005Z,77.87
2019-01-24T11:19:26.030Z,72.47
2019-01-24T11:21:55.970Z,64.90
2019-01-24T11:24:26.166Z,59.83
2019-01-24T11:26:56.648Z,65.57
2019-01-24T11:29:26.578Z,66.02
2019-01-24T11:31:56.417Z,70.37
2019-01-24T11:34:26.412Z,67.70
2019-01-24T11:36:57.486Z,69.17
2019-01-24T11:39:27.363Z,65.87
2019-01-24T11:41:57.233Z,70.17
2019-01-24T11:44:27.178Z,64.77
2019-01-24T11:46:57.018Z,71.63
2019-01-24T11:49:27.263Z,71.92
2019-01-24T11:51:57.008Z,64.13
2019-01-24T11:54:27.059Z,62.60
2019-01-24T11:56:57.062Z,70.63
2019-01-24T11:59:27.184Z,65.40
2019-01-24T12:01:57.045Z,62.50
2019-01-24T12:04:27.244Z,67.93
2019-01-24T12:07:03.886Z,71.25
2019-01-24T12:09:28.700Z,71.60
2019-01-24T12:11:58.976Z,75.50
2019-01-24T12:14:28.981Z,64.70
2019-01-24T12:16:59.059Z,66.50
2019-01-24T12:19:28.947Z,70.23
2019-01-24T12:21:58.849Z,69.57
2019-01-24T12:24:28.818Z,64.03
2019-01-24T12:26:58.719Z,75.67
2019-01-24T12:29:28.662Z,83.97
2019-01-24T12:31:58.724Z,75.50
2019-01-24T12:34:28.900Z,70.53
2019-01-24T12:36:58.841Z,72.20
2019-01-24T12:39:28.959Z,77.20
2019-01-24T12:41:58.867Z,72.97
2019-01-24T12:44:28.842Z,73.52
2019-01-24T12:46:58.983Z,78.23
2019-01-24T12:49:28.989Z,78.60
2019-01-24T12:51:58.923Z,78.47
2019-01-24T12:54:29.018Z,74.62
2019-01-24T12:56:59.624Z,73.92
2019-01-24T12:59:29.605Z,76.90
2019-01-24T13:01:59.534Z,76.80
2019-01-24T13:04:29.635Z,79.93
2019-01-24T13:06:59.698Z,72.17
2019-01-24T13:09:29.529Z,77.87
2019-01-24T13:11:59.512Z,81.17
2019-01-24T13:14:29.536Z,74.23
2019-01-24T13:16:59.463Z,73.60
2019-01-24T13:19:29.366Z,78.47
2019-01-24T13:21:59.377Z,85.97
2019-01-24T13:24:29.435Z,84.23
2019-01-24T13:26:59.363Z,76.90
2019-01-24T13:29:29.343Z,79.33
2019-01-24T13:31:59.312Z,73.73
2019-01-24T13:34:29.328Z,81.47
2019-01-24T13:36:59.876Z,81.37
2019-01-24T13:39:29.790Z,87.00
2019-01-24T13:41:59.843Z,72.83
2019-01-24T13:44:30.175Z,75.73
2019-01-24T13:47:00.224Z,80.03
2019-01-24T13:49:30.219Z,81.33
2019-01-24T13:52:00.302Z,78.70
2019-01-24T13:54:30.149Z,78.83
2019-01-24T13:57:00.233Z,77.53
2019-01-24T13:59:36.286Z,74.37
2019-01-24T14:02:07.126Z,70.93
2019-01-24T14:04:42.360Z,75.13
2019-01-24T14:07:13.406Z,71.27
2019-01-24T14:09:43.512Z,73.93
2019-01-24T14:12:13.374Z,70.63
2019-01-24T14:14:43.618Z,74.20
2019-01-24T14:17:13.546Z,71.10
2019-01-24T14:19:44.517Z,74.97
2019-01-24T14:22:14.813Z,72.13
2019-01-24T14:24:45.150Z,71.67
2019-01-24T14:27:15.350Z,72.60
2019-01-24T14:29:45.366Z,72.70
2019-01-24T14:32:16.353Z,72.07
2019-01-24T14:34:46.417Z,70.10
2019-01-24T14:37:16.296Z,74.37
2019-01-24T14:39:46.156Z,66.02
2019-01-24T14:42:16.194Z,73.78
2019-01-24T14:44:46.077Z,64.07
2019-01-24T14:47:15.953Z,67.83
2019-01-24T14:49:46.092Z,59.90
2019-01-24T14:52:16.051Z,58.43
2019-01-24T14:54:46.143Z,63.83
2019-01-24T14:57:18.220Z,65.03
2019-01-24T14:59:48.262Z,64.62
2019-01-24T15:02:19.006Z,63.10
2019-01-24T15:04:48.949Z,56.50
2019-01-24T15:07:18.999Z,66.10
2019-01-24T15:09:49.010Z,61.27
2019-01-24T15:12:18.922Z,63.77
2019-01-24T15:14:48.824Z,58.23
2019-01-24T15:17:20.884Z,61.10
2019-01-24T15:19:50.842Z,60.20
2019-01-24T15:22:23.030Z,54.53
2019-01-24T15:24:52.850Z,54.03
2019-01-24T15:27:22.821Z,56.67
2019-01-24T15:29:52.662Z,56.40
2019-01-24T15:32:22.519Z,54.50
2019-01-24T15:34:52.313Z,54.95
2019-01-24T15:37:22.554Z,54.58
2019-01-24T15:39:53.269Z,56.23
2019-01-24T15:42:23.230Z,50.53
2019-01-24T15:44:53.865Z,58.13
2019-01-24T15:47:23.663Z,55.50
2019-01-24T15:49:53.580Z,55.20
2019-01-24T15:52:23.720Z,60.33
2019-01-24T15:54:53.759Z,50.77
2019-01-24T15:57:23.687Z,52.83
2019-01-24T15:59:53.619Z,51.53
2019-01-24T16:02:24.570Z,62.38
2019-01-24T16:04:54.509Z,59.57
2019-01-24T16:07:24.556Z,53.23
2019-01-24T16:09:54.526Z,54.07
2019-01-24T16:12:24.536Z,54.37
2019-01-24T16:14:54.789Z,57.23
2019-01-24T16:17:24.968Z,52.67
2019-01-24T16:19:54.954Z,52.07
2019-01-24T16:22:25.807Z,63.80
2019-01-24T16:24:55.550Z,60.07
2019-01-24T16:27:38.695Z,58.27
2019-01-24T16:30:11.751Z,60.00
2019-01-24T16:32:49.810Z,54.43
2019-01-24T16:35:20.461Z,55.60
2019-01-24T16:37:50.360Z,54.70
2019-01-24T16:40:21.185Z,57.40
2019-01-24T16:43:09.180Z,69.86
2019-01-24T16:45:38.983Z,62.70
2019-01-24T16:48:08.983Z,63.90
2019-01-24T16:50:38.995Z,57.90
2019-01-24T16:53:08.903Z,62.07
2019-01-24T16:55:39.020Z,52.17
2019-01-24T16:58:09.175Z,60.63
2019-01-24T17:00:52.145Z,59.40
2019-01-24T17:03:22.368Z,57.50
2019-01-24T17:05:52.319Z,60.30
2019-01-24T17:08:22.364Z,55.87
2019-01-24T17:10:53.521Z,54.77
2019-01-24T17:13:23.490Z,58.85
2019-01-24T17:15:53.515Z,55.40
2019-01-24T17:18:23.577Z,54.55
2019-01-24T17:20:53.775Z,58.97
2019-01-24T17:23:24.254Z,62.58
2019-01-24T17:25:54.040Z,64.80
2019-01-24T17:28:24.000Z,65.12
2019-01-24T17:30:53.941Z,58.37
2019-01-24T17:33:24.893Z,60.30
2019-01-24T17:35:55.109Z,47.80
2019-01-24T17:38:30.263Z,72.90
2019-01-24T17:41:00.584Z,91.70
2019-01-24T17:43:30.550Z,86.90
2019-01-24T17:46:09.935Z,86.33
2019-01-24T17:48:40.064Z,91.03
2019-01-24T17:51:11.347Z,82.37
2019-01-24T17:53:45.720Z,84.73
2019-01-24T17:56:20.347Z,79.73
2019-01-24T17:58:50.216Z,75.90
2019-01-24T18:01:20.330Z,77.23
2019-01-24T18:03:51.102Z,83.70
2019-01-24T18:06:21.514Z,76.40
2019-01-24T18:08:51.624Z,76.27
2019-01-24T18:11:23.236Z,83.45
2019-01-24T18:13:53.176Z,57.13
2019-01-24T18:16:23.126Z,53.65
2019-01-24T18:18:53.025Z,61.13
2019-01-24T18:21:23.439Z,67.37
2019-01-24T18:23:53.277Z,62.43
2019-01-24T18:26:24.357Z,55.47
2019-01-24T18:28:55.804Z,59.00
2019-01-24T18:31:25.765Z,64.93
2019-01-24T18:33:55.661Z,58.87
2019-01-24T18:36:25.504Z,63.83
2019-01-24T18:38:55.637Z,60.87
2019-01-24T18:41:26.537Z,56.97
2019-01-24T18:43:58.662Z,55.17
2019-01-24T18:46:29.614Z,60.90
2019-01-24T18:48:59.516Z,61.90
2019-01-24T18:51:29.502Z,59.53
2019-01-24T18:53:59.516Z,55.40
2019-01-24T18:56:29.581Z,66.73
2019-01-24T18:59:00.413Z,64.80
2019-01-24T19:01:32.523Z,60.37
2019-01-24T19:04:03.516Z,64.82
2019-01-24T19:06:33.531Z,69.50
2019-01-24T19:09:08.165Z,72.74
2019-01-24T19:11:37.917Z,67.17
2019-01-24T19:14:09.555Z,62.58
2019-01-24T19:16:39.726Z,62.23
2019-01-24T19:19:09.795Z,66.70
2019-01-24T19:21:39.858Z,65.00
2019-01-24T19:24:09.984Z,68.62
2019-01-24T19:26:41.955Z,66.97
2019-01-24T19:29:11.960Z,65.70
2019-01-24T19:31:41.850Z,74.20
2019-01-24T19:34:11.686Z,66.13
2019-01-24T19:36:41.910Z,78.37
2019-01-24T19:39:12.088Z,75.47
2019-01-24T19:41:42.107Z,73.70
2019-01-24T19:44:15.770Z,76.30
2019-01-24T19:46:43.882Z,66.80
2019-01-24T19:49:13.746Z,73.20
2019-01-24T19:51:43.919Z,70.17
2019-01-24T19:54:15.064Z,68.80
2019-01-24T19:56:45.185Z,74.30
2019-01-24T19:59:15.303Z,76.57
2019-01-24T20:01:45.868Z,73.20
2019-01-24T20:04:16.012Z,71.93
2019-01-24T20:06:49.249Z,69.97
2019-01-24T20:09:19.576Z,69.80
2019-01-24T20:11:49.693Z,70.77
2019-01-24T20:14:20.300Z,73.77
2019-01-24T20:16:53.664Z,70.97
2019-01-24T20:19:25.726Z,64.53
2019-01-24T20:21:56.335Z,68.63
2019-01-24T20:24:27.373Z,67.17
2019-01-24T20:26:57.996Z,68.80
2019-01-24T20:29:28.097Z,75.83
2019-01-24T20:31:58.241Z,71.10
2019-01-24T20:34:29.468Z,66.65
2019-01-24T20:37:00.742Z,73.03
2019-01-24T20:39:31.726Z,70.43
2019-01-24T20:42:02.550Z,72.10
2019-01-24T20:44:33.760Z,62.10
2019-01-24T20:47:03.782Z,69.60
2019-01-24T20:49:35.037Z,64.50
2019-01-24T20:52:06.018Z,68.53
2019-01-24T20:54:37.093Z,68.27
2019-01-24T20:57:07.418Z,70.03
2019-01-24T20:59:37.435Z,67.70
2019-01-24T21:02:10.835Z,62.40
2019-01-24T21:04:40.933Z,67.50
2019-01-24T21:07:11.812Z,74.53
2019-01-24T21:09:47.676Z,70.87
2019-01-24T21:12:17.687Z,67.30
2019-01-24T21:14:47.859Z,69.97
2019-01-24T21:17:18.057Z,65.07
2019-01-24T21:19:48.288Z,75.40
2019-01-24T21:22:21.360Z,67.00
2019-01-24T21:24:51.470Z,66.33
2019-01-24T21:27:22.020Z,64.13
2019-01-24T21:29:52.200Z,68.90
2019-01-24T21:32:22.171Z,70.93
2019-01-24T21:34:53.224Z,71.47
2019-01-24T21:37:23.260Z,63.20
2019-01-24T21:39:53.243Z,69.03
2019-01-24T21:42:23.216Z,64.67
2019-01-24T21:44:53.343Z,66.93
2019-01-24T21:47:24.428Z,68.60
2019-01-24T21:49:54.432Z,71.87
2019-01-24T21:52:24.409Z,61.20
2019-01-24T21:54:54.464Z,62.20
2019-01-24T21:57:25.794Z,65.90
2019-01-24T21:59:55.876Z,63.77
2019-01-24T22:02:25.918Z,70.67
2019-01-24T22:04:55.908Z,62.80
2019-01-24T22:07:25.955Z,68.57
2019-01-24T22:09:56.040Z,62.15
2019-01-24T22:12:26.033Z,66.23
2019-01-24T22:14:56.807Z,67.12
2019-01-24T22:17:27.261Z,65.63
2019-01-24T22:19:57.369Z,67.40
2019-01-24T22:22:27.496Z,64.17
2019-01-24T22:24:59.275Z,70.10
2019-01-24T22:27:29.453Z,60.53
2019-01-24T22:30:02.716Z,60.05
2019-01-24T22:32:38.046Z,69.30
2019-01-24T22:35:11.939Z,68.20
2019-01-24T22:37:44.023Z,64.07
2019-01-24T22:40:17.071Z,59.23
2019-01-24T22:42:50.528Z,56.73
2019-01-24T22:45:31.498Z,56.80
2019-01-24T22:48:02.490Z,66.95
2019-01-24T22:50:42.346Z,64.60
2019-01-24T22:53:28.673Z,71.40
2019-01-24T22:56:00.680Z,65.17
2019-01-24T22:58:32.859Z,65.97
2019-01-24T23:01:28.025Z,57.40
2019-01-24T23:04:08.527Z,65.10
2019-01-24T23:06:39.062Z,65.57
2019-01-24T23:09:13.078Z,65.57
2019-01-24T23:11:43.416Z,64.83
2019-01-24T23:14:15.282Z,64.57
2019-01-24T23:16:47.113Z,63.15
2019-01-24T23:19:16.999Z,68.17
2019-01-24T23:22:00.229Z,62.80
2019-01-24T23:24:30.504Z,61.03
2019-01-24T23:27:02.825Z,68.23
2019-01-24T23:29:32.647Z,61.87
2019-01-24T23:32:02.554Z,58.73
2019-01-24T23:34:32.546Z,62.27
2019-01-24T23:37:03.044Z,58.63
2019-01-24T23:39:33.029Z,57.83
2019-01-24T23:42:02.975Z,58.80
2019-01-24T23:44:32.846Z,62.30
2019-01-24T23:47:02.989Z,64.67
2019-01-24T23:49:32.853Z,55.83
2019-01-24T23:52:02.770Z,63.07
2019-01-24T23:54:33.601Z,59.57
2019-01-24T23:57:03.848Z,54.77
2019-01-24T23:59:33.723Z,57.50
